Time;durP1;ratioP1;P1;durP2;ratioP2;P2;SDS_P1;SDS_P2;PMS_P1;PMS_P2;Temp;Humidity;BMP_temperature;BMP_pressure;BME280_temperature;BME280_humidity;BME280_pressure;Samples;Min_cycle;Max_cycle;Signal;HPM_P1;HPM_P2
2023/08/01 00:03:23;;;;;;;8.77;3.55;;;;;;;-145.68;80.46;72404.59;10097885;29;20210;-65
2023/08/01 00:08:23;;;;;;;5.72;3.13;;;;;;;-145.68;81.02;72392.63;10099147;29;20218;-68
2023/08/01 00:13:24;;;;;;;9.88;3.33;;;;;;;-145.68;81.38;72388.63;10098737;29;20737;-67
2023/08/01 00:18:24;;;;;;;4.82;3.00;;;;;;;-145.68;80.15;72376.63;10098721;29;20689;-68
2023/08/01 00:23:24;;;;;;;6.13;3.28;;;;;;;-145.68;78.65;72354.66;10098440;29;20732;-68
2023/08/01 00:28:26;;;;;;;9.93;3.03;;;;;;;-145.68;78.02;72344.66;10098465;29;20214;-68
2023/08/01 00:33:26;;;;;;;8.43;3.28;;;;;;;-145.68;77.75;72344.66;10081369;29;20692;-68
2023/08/01 00:38:27;;;;;;;6.40;2.33;;;;;;;-145.68;73.77;72294.72;10097964;29;20210;-69
2023/08/01 00:43:27;;;;;;;5.60;3.17;;;;;;;-145.68;71.51;72266.72;10097712;29;20221;-69
2023/08/01 00:48:29;;;;;;;4.80;2.88;;;;;;;-145.68;71.28;72264.72;10097695;29;20217;-69
2023/08/01 00:53:31;;;;;;;6.13;2.95;;;;;;;-145.68;69.92;72252.75;10097214;29;20230;-69
2023/08/01 00:58:31;;;;;;;4.43;2.75;;;;;;;-145.68;69.25;72234.75;10097261;29;20292;-70
2023/08/01 01:03:32;;;;;;;4.18;2.80;;;;;;;-145.68;68.50;72226.75;10079598;29;20229;-70
2023/08/01 01:08:32;;;;;;;4.82;3.20;;;;;;;-145.68;67.98;72220.78;10096894;29;20555;-70
2023/08/01 01:13:33;;;;;;;3.88;2.30;;;;;;;-145.68;67.90;72204.78;10079916;29;20772;-70
2023/08/01 01:18:33;;;;;;;4.18;3.50;;;;;;;-145.68;68.23;72208.78;10080054;29;20734;-70
2023/08/01 01:23:34;;;;;;;7.43;3.25;;;;;;;-145.68;67.91;72202.78;10096307;29;20229;-70
2023/08/01 01:28:35;;;;;;;5.28;3.20;;;;;;;-145.68;67.80;72198.78;10095036;29;20711;-70
2023/08/01 01:33:36;;;;;;;4.13;3.35;;;;;;;-145.68;67.39;72190.81;10094659;29;20253;-70
2023/08/01 01:38:37;;;;;;;4.85;3.55;;;;;;;-145.68;67.70;72194.78;10079110;29;20206;-67
2023/08/01 01:43:40;;;;;;;7.43;4.05;;;;;;;-145.68;68.13;72196.78;10095394;29;20228;-71
2023/08/01 01:48:42;;;;;;;4.63;3.35;;;;;;;-145.68;68.42;72192.78;10095523;29;20217;-71
2023/08/01 01:53:42;;;;;;;6.03;3.97;;;;;;;-145.68;68.67;72198.78;10078172;29;20312;-70
2023/08/01 01:58:43;;;;;;;4.65;3.38;;;;;;;-145.68;68.89;72210.78;10095072;29;20206;-71
2023/08/01 02:03:43;;;;;;;4.35;3.17;;;;;;;-145.68;71.22;72240.75;10078193;29;20229;-69
2023/08/01 02:08:44;;;;;;;4.72;3.17;;;;;;;-145.68;78.41;72292.72;10094839;29;20729;-70
2023/08/01 02:13:44;;;;;;;5.53;3.00;;;;;;;-145.68;86.37;72314.69;10094523;29;20858;-70
2023/08/01 02:18:44;;;;;;;5.35;3.58;;;;;;;-145.68;88.08;72300.69;10077423;29;20213;-70
2023/08/01 02:23:45;;;;;;;6.32;3.08;;;;;;;-145.68;90.37;72304.69;10094177;29;20611;-69
2023/08/01 02:28:45;;;;;;;5.25;3.45;;;;;;;-145.68;91.86;72308.69;10077510;29;20205;-69
2023/08/01 02:33:45;;;;;;;3.75;3.35;;;;;;;-145.68;94.72;72314.69;10093744;29;20740;-69
2023/08/01 02:38:46;;;;;;;4.50;2.88;;;;;;;-145.68;99.19;72328.69;10077495;29;20681;-69
2023/08/01 02:43:47;;;;;;;4.47;3.25;;;;;;;-145.68;100.00;72328.69;10093578;29;20226;-68
2023/08/01 02:48:48;;;;;;;4.07;2.75;;;;;;;-145.68;100.00;72340.66;10093901;29;20202;-69
2023/08/01 02:53:48;;;;;;;4.03;3.28;;;;;;;-145.68;100.00;72360.66;10093351;29;20816;-69
2023/08/01 02:58:49;;;;;;;3.50;2.78;;;;;;;-145.68;100.00;72354.66;10093468;29;20210;-69
2023/08/01 03:03:50;;;;;;;4.57;2.83;;;;;;;-145.68;100.00;72368.63;10076632;29;20324;-69
2023/08/01 03:08:51;;;;;;;5.63;3.25;;;;;;;-145.68;100.00;72368.63;10093249;29;20774;-68
2023/08/01 03:13:51;;;;;;;6.25;3.70;;;;;;;-145.68;100.00;72362.66;10093931;29;20240;-68
2023/08/01 03:18:51;;;;;;;5.50;3.80;;;;;;;-145.68;100.00;72358.66;10093323;29;20217;-69
2023/08/01 03:23:52;;;;;;;5.68;3.47;;;;;;;-145.68;100.00;72366.63;10095043;29;20313;-70
2023/08/01 03:28:52;;;;;;;6.53;3.03;;;;;;;-145.68;100.00;72360.66;10099510;29;20625;-70
2023/08/01 03:33:53;;;;;;;3.65;3.10;;;;;;;-145.68;100.00;72358.66;10099976;29;20234;-70
2023/08/01 03:38:53;;;;;;;4.53;3.00;;;;;;;-145.68;100.00;72338.66;10100354;29;20297;-70
2023/08/01 03:43:53;;;;;;;4.53;3.17;;;;;;;-145.68;100.00;72328.69;10099648;29;20605;-69
2023/08/01 03:48:54;;;;;;;4.28;2.42;;;;;;;-145.68;100.00;72304.69;10083229;29;20224;-70
2023/08/01 03:53:54;;;;;;;3.40;2.50;;;;;;;-145.68;100.00;72288.72;10099525;29;20233;-70
2023/08/01 03:58:54;;;;;;;6.15;2.53;;;;;;;-145.68;100.00;72290.72;10099459;29;20673;-70
2023/08/01 04:03:55;;;;;;;4.00;2.45;;;;;;;-145.68;100.00;72272.72;10082391;29;20788;-70
2023/08/01 04:08:56;;;;;;;3.45;2.35;;;;;;;-145.68;100.00;72260.72;10099043;29;20670;-69
2023/08/01 04:13:56;;;;;;;3.17;2.40;;;;;;;-145.68;100.00;72230.75;10098868;29;20638;-70
2023/08/01 04:18:57;;;;;;;3.30;2.70;;;;;;;-145.68;100.00;72228.75;10098694;29;20222;-69
2023/08/01 04:23:57;;;;;;;3.03;2.58;;;;;;;-145.68;100.00;72220.78;10098522;29;20236;-69
2023/08/01 04:28:57;;;;;;;2.95;2.28;;;;;;;-145.68;100.00;72206.78;10098398;29;20210;-70
2023/08/01 04:33:58;;;;;;;2.45;2.17;;;;;;;-145.68;100.00;72196.78;10095920;29;20244;-70
2023/08/01 04:38:59;;;;;;;3.85;2.85;;;;;;;-145.68;100.00;72198.78;10097280;29;20213;-70
2023/08/01 04:43:59;;;;;;;3.28;2.80;;;;;;;-145.68;100.00;72222.78;10097678;29;20244;-70
2023/08/01 04:48:59;;;;;;;4.95;3.08;;;;;;;-145.68;100.00;72230.75;10096094;29;20230;-71
2023/08/01 04:54:00;;;;;;;4.53;2.60;;;;;;;-145.68;100.00;72224.78;10097713;29;20238;-73
2023/08/01 04:59:01;;;;;;;3.65;2.65;;;;;;;-145.68;100.00;72224.78;10090542;29;20263;-72
2023/08/01 05:04:02;;;;;;;2.35;2.22;;;;;;;-145.68;100.00;72212.78;10094588;29;20269;-72
2023/08/01 05:09:02;;;;;;;2.45;2.25;;;;;;;-145.68;100.00;72208.78;10097041;29;20636;-72
2023/08/01 05:14:03;;;;;;;2.78;2.03;;;;;;;-145.68;100.00;72196.78;10096438;29;20234;-71
2023/08/01 05:19:03;;;;;;;2.35;2.15;;;;;;;-145.68;100.00;72188.81;10096628;29;20214;-72
2023/08/01 05:24:04;;;;;;;4.35;1.90;;;;;;;-145.68;100.00;72184.81;10096165;29;20324;-71
2023/08/01 05:29:04;;;;;;;2.13;1.77;;;;;;;-145.68;100.00;72178.81;10096222;29;20210;-71
2023/08/01 05:34:04;;;;;;;1.80;1.70;;;;;;;-145.68;100.00;72168.81;10095976;29;20246;-71
2023/08/01 05:39:05;;;;;;;2.50;2.10;;;;;;;-145.68;100.00;72136.84;10095642;29;20222;-71
2023/08/01 05:44:05;;;;;;;1.83;1.73;;;;;;;-145.68;100.00;72116.88;10095783;29;20317;-71
2023/08/01 05:49:06;;;;;;;2.75;1.90;;;;;;;-145.68;100.00;72090.91;10094720;29;20275;-69
2023/08/01 05:54:06;;;;;;;1.95;1.85;;;;;;;-145.68;100.00;72092.91;10095283;29;20243;-70
2023/08/01 05:59:06;;;;;;;3.63;1.45;;;;;;;-145.68;100.00;72052.94;10094982;29;20608;-71
2023/08/01 06:04:07;;;;;;;3.83;1.65;;;;;;;-145.68;100.00;72030.94;10094793;29;20680;-71
2023/08/01 06:09:08;;;;;;;1.60;1.50;;;;;;;-145.68;100.00;72032.94;10094873;29;20214;-71
2023/08/01 06:14:09;;;;;;;1.50;1.40;;;;;;;-145.68;100.00;72008.97;10094282;29;20668;-71
2023/08/01 06:19:09;;;;;;;1.70;1.60;;;;;;;-145.68;100.00;71991.00;10077930;29;20692;-71
2023/08/01 06:24:10;;;;;;;1.30;1.20;;;;;;;-145.68;100.00;71981.00;10094180;29;20237;-70
2023/08/01 06:29:11;;;;;;;1.65;1.45;;;;;;;-145.68;100.00;71993.00;10094232;29;20214;-71
2023/08/01 06:34:11;;;;;;;2.22;1.48;;;;;;;-145.68;100.00;71993.00;10093851;29;20254;-71
2023/08/01 06:39:11;;;;;;;1.55;1.35;;;;;;;-145.68;100.00;71983.00;10093794;29;20228;-70
2023/08/01 06:44:12;;;;;;;1.58;1.30;;;;;;;-145.68;100.00;71989.00;10093829;29;20241;-71
2023/08/01 06:49:13;;;;;;;1.92;1.50;;;;;;;-145.68;100.00;71996.97;10093618;29;20218;-70
2023/08/01 06:54:13;;;;;;;1.50;1.40;;;;;;;-145.68;100.00;71981.00;10093610;29;20234;-70
2023/08/01 06:59:14;;;;;;;1.80;1.60;;;;;;;-145.68;100.00;71961.03;10096214;29;20269;-70
2023/08/01 07:04:15;;;;;;;1.60;1.48;;;;;;;-145.68;100.00;71937.03;10101186;29;20233;-69
2023/08/01 07:09:15;;;;;;;2.03;1.40;;;;;;;-145.68;100.00;71921.06;10101455;29;20226;-70
2023/08/01 07:14:15;;;;;;;2.45;1.73;;;;;;;-145.68;99.72;71901.09;10100989;29;20743;-70
2023/08/01 07:19:16;;;;;;;3.15;2.85;;;;;;;-145.68;95.41;71903.06;10100849;29;20691;-70
2023/08/01 07:24:16;;;;;;;2.08;1.55;;;;;;;-145.68;92.58;71857.13;10100628;29;20634;-70
2023/08/01 07:29:17;;;;;;;1.70;1.30;;;;;;;-145.68;87.26;71807.19;10100633;29;20406;-72
2023/08/01 07:34:17;;;;;;;1.00;1.00;;;;;;;-145.68;82.84;71801.19;10100322;29;20242;-72
2023/08/01 07:39:17;;;;;;;1.38;1.27;;;;;;;-145.68;82.65;71825.16;10092567;29;20222;-71
2023/08/01 07:44:18;;;;;;;1.13;1.08;;;;;;;-145.68;86.89;71909.06;10071345;29;20250;-73
2023/08/01 07:49:18;;;;;;;2.83;1.58;;;;;;;-145.68;100.00;72008.97;10061319;29;20221;-71
2023/08/01 07:54:18;;;;;;;2.08;1.70;;;;;;;-145.68;100.00;72056.94;10061000;29;20321;-69
2023/08/01 07:59:19;;;;;;;2.30;1.60;;;;;;;-145.68;100.00;72076.91;10060664;29;20222;-69
2023/08/01 08:04:19;;;;;;;4.57;1.33;;;;;;;-145.68;100.00;72060.94;10087295;29;20314;-68
2023/08/01 08:09:20;;;;;;;2.95;1.25;;;;;;;-145.68;100.00;72032.94;10097092;29;20218;-68
2023/08/01 08:14:22;;;;;;;1.30;1.20;;;;;;;-145.68;100.00;72008.97;10098790;29;20287;-68
2023/08/01 08:19:25;;;;;;;2.42;1.10;;;;;;;-145.68;100.00;71981.00;10098618;29;20825;-68
2023/08/01 08:24:25;;;;;;;0.70;0.70;;;;;;;-145.68;100.00;71981.00;10098200;29;20660;-68
2023/08/01 08:29:25;;;;;;;0.93;0.93;;;;;;;-145.68;100.00;71985.00;10098556;29;20217;-69
2023/08/01 08:34:26;;;;;;;0.88;0.88;;;;;;;-145.68;100.00;72002.97;10081336;29;20238;-69
2023/08/01 08:39:26;;;;;;;0.98;0.95;;;;;;;-145.68;100.00;72012.97;10098230;29;20350;-70
2023/08/01 08:44:30;;;;;;;1.42;0.90;;;;;;;-145.68;100.00;72000.97;10081203;29;20236;-70
2023/08/01 08:49:32;;;;;;;0.93;0.90;;;;;;;-145.68;100.00;72018.97;10080968;29;20213;-70
2023/08/01 08:54:32;;;;;;;1.02;1.02;;;;;;;-145.68;100.00;72012.97;10097335;29;20241;-70
2023/08/01 08:59:33;;;;;;;1.55;1.00;;;;;;;-145.68;100.00;72044.94;10097177;29;20210;-70
2023/08/01 09:04:33;;;;;;;1.27;1.17;;;;;;;-145.68;100.00;72040.94;10096957;29;20242;-72
2023/08/01 09:09:34;;;;;;;1.30;1.00;;;;;;;-145.68;100.00;72046.94;10096588;29;20594;-70
2023/08/01 09:14:35;;;;;;;3.42;1.25;;;;;;;-145.68;100.00;72056.94;10096556;29;20249;-69
2023/08/01 09:19:35;;;;;;;1.20;1.00;;;;;;;-145.68;100.00;72014.97;10096486;29;20210;-70
2023/08/01 09:24:35;;;;;;;1.92;0.80;;;;;;;-145.68;100.00;72002.97;10095492;29;20237;-69
2023/08/01 09:29:36;;;;;;;3.60;0.90;;;;;;;-145.68;100.00;71955.03;10096309;29;20214;-68
2023/08/01 09:34:36;;;;;;;1.85;0.70;;;;;;;-145.68;100.00;71917.06;10095784;29;20240;-70
2023/08/01 09:39:36;;;;;;;0.95;0.93;;;;;;;-145.68;100.00;71863.13;10095717;29;20704;-70
2023/08/01 09:44:37;;;;;;;0.70;0.70;;;;;;;-145.68;94.72;71841.13;10095386;29;20717;-70
2023/08/01 09:49:47;;;;;;;0.80;0.80;;;;;;;-145.68;90.88;71839.16;10078670;29;20245;-69
2023/08/01 09:54:48;;;;;;;0.75;0.70;;;;;;;-145.68;84.78;71821.16;10095336;29;20248;-70
2023/08/01 09:59:48;;;;;;;0.52;0.52;;;;;;;-145.68;81.96;71801.19;10095102;29;20304;-70
2023/08/01 10:04:49;;;;;;;1.60;0.70;;;;;;;-145.68;81.90;71799.19;10095131;29;20237;-70
2023/08/01 10:09:50;;;;;;;1.45;1.00;;;;;;;-145.68;79.36;71801.19;10094887;29;20569;-71
2023/08/01 10:14:51;;;;;;;0.90;0.90;;;;;;;-145.68;77.36;71769.22;10077657;29;20242;-71
2023/08/01 10:19:53;;;;;;;1.13;0.80;;;;;;;-145.68;76.75;71739.25;10094546;29;20210;-72
2023/08/01 10:24:54;;;;;;;2.95;0.68;;;;;;;-145.68;77.29;71737.25;10094132;29;20261;-70
2023/08/01 10:29:58;;;;;;;0.60;0.60;;;;;;;-145.68;73.49;71659.34;10094428;29;20692;-70
2023/08/01 10:34:59;;;;;;;1.02;0.80;;;;;;;-145.68;70.90;71667.31;10093739;29;20234;-72
2023/08/01 10:40:00;;;;;;;1.20;0.85;;;;;;;-145.68;70.34;71647.34;10077495;29;20214;-72
2023/08/01 10:45:00;;;;;;;1.10;0.70;;;;;;;-145.68;65.78;71633.34;10093917;29;20245;-72
2023/08/01 10:50:00;;;;;;;0.75;0.68;;;;;;;-145.68;65.66;71581.41;10093637;29;20647;-72
2023/08/01 10:55:03;;;;;;;0.80;0.60;;;;;;;-145.68;59.24;71601.41;10126104;23;20273;-67
2023/08/01 11:00:09;;;;;;;0.50;0.50;;;;;;;-145.68;58.74;71651.34;10170359;29;20213;-67
2023/08/01 11:05:11;;;;;;;1.98;0.60;;;;;;;-145.68;60.25;71741.25;10171081;29;20269;-67
2023/08/01 11:10:13;;;;;;;0.50;0.50;;;;;;;-145.68;62.26;71691.28;10171260;29;20215;-67
2023/08/01 11:15:14;;;;;;;0.43;0.43;;;;;;;-145.68;60.50;71641.34;10170863;29;20248;-67
2023/08/01 11:20:15;;;;;;;0.52;0.52;;;;;;;-145.68;60.98;71667.31;10171283;29;20216;-68
2023/08/01 11:25:16;;;;;;;0.57;0.57;;;;;;;-145.68;60.08;71639.34;10171008;29;20946;-67
2023/08/01 11:30:16;;;;;;;1.95;0.60;;;;;;;-145.68;59.25;71561.44;10170648;29;20268;-68
2023/08/01 11:35:17;;;;;;;2.38;0.65;;;;;;;-145.68;58.03;71505.50;10170695;29;20249;-68
2023/08/01 11:40:18;;;;;;;0.82;0.80;;;;;;;-145.68;57.46;71525.47;10170310;29;20822;-68
2023/08/01 11:45:20;;;;;;;1.27;1.17;;;;;;;-145.68;57.58;71499.50;10173267;29;20231;-68
2023/08/01 11:50:25;;;;;;;0.85;0.85;;;;;;;-145.68;58.03;71525.47;10177524;29;20213;-67
2023/08/01 11:55:26;;;;;;;1.15;1.08;;;;;;;-145.68;60.05;71605.38;10177272;29;20601;-67
2023/08/01 12:00:28;;;;;;;1.20;1.10;;;;;;;-145.68;60.91;71645.34;10177647;29;20303;-68
2023/08/01 12:05:28;;;;;;;1.50;0.93;;;;;;;-145.68;60.54;71581.41;10177000;29;20308;-68
2023/08/01 12:10:37;;;;;;;1.90;1.20;;;;;;;-145.68;60.60;71583.41;10177299;29;20243;-67
2023/08/01 12:15:37;;;;;;;3.38;1.40;;;;;;;-145.68;60.06;71645.34;10176406;29;20240;-68
2023/08/01 12:20:38;;;;;;;1.42;1.30;;;;;;;-145.68;62.37;71763.22;10176669;29;20561;-67
2023/08/01 12:25:38;;;;;;;2.80;1.00;;;;;;;-145.68;80.43;72066.91;10176443;29;20229;-67
2023/08/01 12:30:42;;;;;;;4.05;1.80;;;;;;;-145.68;100.00;72198.78;10176140;29;20216;-68
2023/08/01 12:35:42;;;;;;;2.25;1.80;;;;;;;-145.68;100.00;72302.69;10176135;29;20237;-69
2023/08/01 12:40:43;;;;;;;4.45;1.90;;;;;;;-145.68;100.00;72332.66;10175794;29;20209;-69
2023/08/01 12:45:43;;;;;;;2.10;1.90;;;;;;;-145.68;100.00;72356.66;10175715;29;20260;-67
2023/08/01 12:50:45;;;;;;;4.90;1.92;;;;;;;-145.68;100.00;72388.63;10175452;29;20208;-69
2023/08/01 12:55:50;;;;;;;2.03;1.83;;;;;;;-145.68;100.00;72396.63;10174263;29;20585;-69
2023/08/01 13:00:50;;;;;;;2.35;1.90;;;;;;;-145.68;100.00;72390.63;10158259;29;20272;-69
2023/08/01 13:05:52;;;;;;;2.85;1.90;;;;;;;-145.68;100.00;72368.63;10174933;29;20236;-68
2023/08/01 13:10:53;;;;;;;2.40;2.20;;;;;;;-145.68;100.00;72334.66;10175085;29;20292;-68
2023/08/01 13:15:53;;;;;;;3.55;2.35;;;;;;;-145.68;100.00;72312.69;10174837;29;20327;-68
2023/08/01 13:20:53;;;;;;;2.60;2.13;;;;;;;-145.68;100.00;72246.75;10174888;29;20208;-68
2023/08/01 13:25:54;;;;;;;2.63;2.03;;;;;;;-145.68;100.00;72156.84;10157720;29;20315;-69
2023/08/01 13:30:54;;;;;;;5.25;2.25;;;;;;;-145.68;100.00;72152.84;10174368;29;20235;-68
2023/08/01 13:35:55;;;;;;;2.65;2.45;;;;;;;-145.68;100.00;72164.81;10174307;29;20327;-69
2023/08/01 13:40:59;;;;;;;4.20;2.83;;;;;;;-145.68;100.00;72154.84;10174502;29;20212;-68
2023/08/01 13:45:59;;;;;;;4.70;3.10;;;;;;;-145.68;100.00;72168.81;10174809;29;20319;-68
2023/08/01 13:50:59;;;;;;;3.67;3.10;;;;;;;-145.68;100.00;72170.81;10174991;29;20295;-67
2023/08/01 13:56:00;;;;;;;3.72;3.42;;;;;;;-145.68;100.00;72130.84;10174212;29;20255;-68
2023/08/01 14:01:08;;;;;;;5.25;4.70;;;;;;;-145.68;100.00;72086.91;10174431;29;20271;-68
2023/08/01 14:06:12;;;;;;;9.43;7.82;;;;;;;-145.68;100.00;72060.94;10173432;29;20232;-67
2023/08/01 14:11:13;;;;;;;6.07;3.90;;;;;;;-145.68;100.00;72036.94;10173277;29;20204;-68
2023/08/01 14:16:13;;;;;;;6.75;4.18;;;;;;;-145.68;100.00;72082.91;10174571;29;20252;-69
2023/08/01 14:21:13;;;;;;;5.70;4.10;;;;;;;-145.68;100.00;72062.91;10174454;29;20680;-68
2023/08/01 14:26:14;;;;;;;4.47;4.13;;;;;;;-145.68;100.00;72002.97;10174091;29;20254;-68
2023/08/01 14:31:14;;;;;;;5.22;4.13;;;;;;;-145.68;90.97;71945.03;10171975;29;20220;-68
2023/08/01 14:36:14;;;;;;;4.57;3.25;;;;;;;-145.68;82.40;71853.13;10171839;29;20237;-67
2023/08/01 14:41:16;;;;;;;5.78;3.55;;;;;;;-145.68;81.02;71891.09;10171597;29;20228;-68
2023/08/01 14:46:16;;;;;;;6.30;3.83;;;;;;;-145.68;79.78;71777.22;10171295;29;20312;-67
2023/08/01 14:51:17;;;;;;;4.40;2.80;;;;;;;-145.68;70.20;71671.31;10171698;29;20216;-67
2023/08/01 14:56:17;;;;;;;5.40;3.30;;;;;;;-145.68;68.63;71725.25;10171109;29;20289;-68
2023/08/01 15:01:20;;;;;;;5.18;3.45;;;;;;;-145.68;63.20;71521.47;10171506;29;20205;-68
2023/08/01 15:06:20;;;;;;;4.07;3.55;;;;;;;-145.68;64.23;71655.34;10170973;29;20284;-67
2023/08/01 15:11:21;;;;;;;5.45;4.20;;;;;;;-145.68;62.97;71561.44;10171080;29;20701;-68
2023/08/01 15:16:21;;;;;;;5.28;3.70;;;;;;;-145.68;61.84;71565.44;10170858;29;20271;-68
2023/08/01 15:21:25;;;;;;;3.80;3.00;;;;;;;-145.68;64.12;71657.34;10175112;29;20288;-68
2023/08/01 15:26:25;;;;;;;3.92;3.08;;;;;;;-145.68;61.06;71571.44;10178575;29;20270;-68
2023/08/01 15:31:25;;;;;;;3.75;2.60;;;;;;;-145.68;61.09;71643.34;10178258;29;20295;-67
2023/08/01 15:36:27;;;;;;;3.65;3.10;;;;;;;-145.68;68.18;71823.16;10178148;29;20236;-68
2023/08/01 15:41:28;;;;;;;2.90;2.70;;;;;;;-145.68;69.40;71899.09;10175748;29;20231;-68
2023/08/01 15:46:28;;;;;;;2.90;2.65;;;;;;;-145.68;70.12;71965.00;10138606;29;20237;-68
2023/08/01 15:51:28;;;;;;;3.17;2.88;;;;;;;-145.68;75.66;72032.94;10138837;29;20210;-68
2023/08/01 15:56:29;;;;;;;3.35;2.97;;;;;;;-145.68;81.40;72088.91;10137968;29;20245;-70
2023/08/01 16:01:29;;;;;;;6.95;3.05;;;;;;;-145.68;86.55;72094.88;10138681;29;20217;-69
2023/08/01 16:06:29;;;;;;;2.50;2.30;;;;;;;-145.68;88.61;72096.88;10137985;29;20251;-69
2023/08/01 16:11:30;;;;;;;3.03;1.92;;;;;;;-145.68;83.73;72132.84;10137764;29;20217;-69
2023/08/01 16:16:30;;;;;;;6.50;3.50;;;;;;;-145.68;80.36;72136.84;10137813;29;20244;-69
2023/08/01 16:21:31;;;;;;;2.92;2.10;;;;;;;-145.68;72.81;71998.97;10137365;29;20312;-69
2023/08/01 16:26:31;;;;;;;7.63;2.35;;;;;;;-145.68;66.80;71937.03;10137513;29;20376;-69
2023/08/01 16:31:31;;;;;;;4.90;2.28;;;;;;;-145.68;70.39;72022.97;10136969;29;20220;-68
2023/08/01 16:36:32;;;;;;;4.38;2.05;;;;;;;-145.68;73.86;72072.91;10158839;29;20237;-68
2023/08/01 16:41:32;;;;;;;3.17;2.30;;;;;;;-145.68;76.42;72132.84;10173914;29;20216;-68
2023/08/01 16:46:32;;;;;;;3.45;2.45;;;;;;;-145.68;84.49;72196.78;10174095;29;20240;-68
2023/08/01 16:51:33;;;;;;;3.08;2.40;;;;;;;-145.68;93.67;72268.72;10174579;29;20224;-68
2023/08/01 16:56:34;;;;;;;7.32;2.60;;;;;;;-145.68;94.07;72242.75;10206855;23;20243;-68
2023/08/01 17:01:34;;;;;;;5.00;2.65;;;;;;;-145.68;95.66;72268.72;10176816;29;20220;-70
2023/08/01 17:06:34;;;;;;;4.43;2.60;;;;;;;-145.68;96.01;72254.75;10176781;29;20327;-70
2023/08/01 17:11:35;;;;;;;5.22;2.55;;;;;;;-145.68;98.93;72264.72;10174135;29;20216;-70
2023/08/01 17:16:35;;;;;;;7.10;2.80;;;;;;;-145.68;100.00;72266.72;10175003;29;20233;-70
2023/08/01 17:21:35;;;;;;;6.13;2.75;;;;;;;-145.68;100.00;72274.72;10179472;29;20271;-70
2023/08/01 17:26:39;;;;;;;4.18;2.72;;;;;;;-145.68;100.00;72268.72;10189723;29;20236;-70
2023/08/01 17:31:40;;;;;;;5.97;2.40;;;;;;;-145.68;99.19;72250.75;10174220;29;20733;-70
2023/08/01 17:36:40;;;;;;;7.35;2.80;;;;;;;-145.68;96.15;72220.78;10174846;29;20235;-70
2023/08/01 17:41:40;;;;;;;3.08;2.58;;;;;;;-145.68;90.44;72176.81;10171806;29;20224;-70
2023/08/01 17:46:41;;;;;;;3.38;2.72;;;;;;;-145.68;86.65;72148.84;10172967;29;20318;-70
2023/08/01 17:51:41;;;;;;;3.28;2.38;;;;;;;-145.68;84.05;72148.84;10173076;29;20276;-70
2023/08/01 17:56:41;;;;;;;5.82;2.50;;;;;;;-145.68;85.07;72150.84;10172786;29;20241;-70
2023/08/01 18:01:42;;;;;;;3.05;2.33;;;;;;;-145.68;85.85;72170.81;10172972;29;20209;-70
2023/08/01 18:06:42;;;;;;;5.10;2.40;;;;;;;-145.68;89.05;72192.78;10172482;29;20727;-70
2023/08/01 18:11:43;;;;;;;3.53;2.45;;;;;;;-145.68;89.31;72216.78;10172477;29;20560;-70
2023/08/01 18:16:44;;;;;;;2.95;2.65;;;;;;;-145.68;91.21;72228.75;10172181;29;20241;-70
2023/08/01 18:21:44;;;;;;;3.05;2.75;;;;;;;-145.68;92.80;72258.75;10172307;29;20224;-70
2023/08/01 18:26:45;;;;;;;4.88;3.33;;;;;;;-145.68;92.81;72268.72;10171645;29;20248;-70
2023/08/01 18:31:45;;;;;;;4.50;3.22;;;;;;;-145.68;93.62;72294.72;10172013;29;20244;-69
2023/08/01 18:36:45;;;;;;;3.15;2.88;;;;;;;-145.68;95.46;72312.69;10171476;29;20300;-70
2023/08/01 18:41:46;;;;;;;4.07;2.70;;;;;;;-145.68;99.02;72360.66;10171625;29;20204;-70
2023/08/01 18:46:48;;;;;;;4.05;2.90;;;;;;;-145.68;99.82;72368.63;10170013;29;20247;-69
2023/08/01 18:51:48;;;;;;;7.50;3.30;;;;;;;-145.68;100.00;72414.59;10171110;29;20276;-70
2023/08/01 18:56:49;;;;;;;7.47;3.28;;;;;;;-145.68;100.00;72450.56;10170329;29;20251;-70
2023/08/01 19:01:50;;;;;;;7.22;3.70;;;;;;;-145.68;100.00;72450.56;10170849;29;20303;-70
2023/08/01 19:06:50;;;;;;;5.30;3.65;;;;;;;-145.68;100.00;72484.53;10171054;29;20244;-69
2023/08/01 19:11:50;;;;;;;4.50;3.53;;;;;;;-145.68;100.00;72490.53;10170974;29;20223;-69
2023/08/01 19:16:51;;;;;;;4.38;3.70;;;;;;;-145.68;100.00;72504.53;10170709;29;20244;-69
2023/08/01 19:21:51;;;;;;;6.40;4.03;;;;;;;-145.68;100.00;72510.50;10171175;29;20216;-69
2023/08/01 19:26:51;;;;;;;5.80;4.03;;;;;;;-145.68;100.00;72526.50;10170529;29;20239;-70
2023/08/01 19:31:52;;;;;;;6.03;4.22;;;;;;;-145.68;100.00;72568.47;10170914;29;20205;-70
2023/08/01 19:36:52;;;;;;;9.85;3.88;;;;;;;-145.68;100.00;72568.47;10170185;29;20251;-70
2023/08/01 19:41:53;;;;;;;4.25;3.85;;;;;;;-145.68;100.00;72550.47;10170626;29;20714;-70
2023/08/01 19:46:53;;;;;;;5.50;3.45;;;;;;;-145.68;100.00;72568.47;10170283;29;20620;-69
2023/08/01 19:51:54;;;;;;;4.70;3.60;;;;;;;-145.68;100.00;72580.47;10170198;29;20211;-69
2023/08/01 19:56:54;;;;;;;8.98;3.45;;;;;;;-145.68;100.00;72582.44;10170050;29;20308;-70
2023/08/01 20:01:54;;;;;;;4.40;3.40;;;;;;;-145.68;100.00;72612.44;10170003;29;20212;-69
2023/08/01 20:06:55;;;;;;;4.93;3.78;;;;;;;-145.68;100.00;72646.41;10173453;29;20232;-70
2023/08/01 20:11:55;;;;;;;6.10;3.40;;;;;;;-145.68;100.00;72628.41;10176938;29;20213;-69
2023/08/01 20:16:56;;;;;;;10.75;3.97;;;;;;;-145.68;100.00;72650.41;10176297;29;20335;-69
2023/08/01 20:21:56;;;;;;;6.22;3.78;;;;;;;-145.68;100.00;72644.41;10176630;29;20691;-69
2023/08/01 20:26:56;;;;;;;7.95;3.47;;;;;;;-145.68;100.00;72642.41;10175617;29;20596;-69
2023/08/01 20:31:58;;;;;;;5.85;2.92;;;;;;;-145.68;100.00;72626.41;10175862;29;20283;-69
2023/08/01 20:36:58;;;;;;;5.80;2.70;;;;;;;-145.68;100.00;72598.44;10176534;29;20244;-69
2023/08/01 20:41:59;;;;;;;4.05;2.78;;;;;;;-145.68;100.00;72608.44;10175795;29;20758;-70
2023/08/01 20:46:59;;;;;;;4.25;2.20;;;;;;;-145.68;100.00;72602.44;10175705;29;20244;-70
2023/08/01 20:52:00;;;;;;;3.35;2.30;;;;;;;-145.68;100.00;72614.44;10195942;29;20219;-70
2023/08/01 20:57:01;;;;;;;3.72;2.33;;;;;;;-145.68;100.00;72630.41;10181872;29;20265;-70
2023/08/01 21:02:01;;;;;;;2.97;2.15;;;;;;;-145.68;100.00;72636.41;10175176;29;20303;-69
2023/08/01 21:07:02;;;;;;;3.00;2.10;;;;;;;-145.68;100.00;72634.41;10173777;29;20263;-70
2023/08/01 21:12:02;;;;;;;4.35;2.10;;;;;;;-145.68;100.00;72644.41;10180875;29;20211;-70
2023/08/01 21:17:03;;;;;;;3.90;2.20;;;;;;;-145.68;100.00;72636.41;10211576;29;20239;-69
2023/08/01 21:22:03;;;;;;;4.88;2.08;;;;;;;-145.68;100.00;72630.41;10176426;29;20213;-70
2023/08/01 21:27:04;;;;;;;4.05;2.10;;;;;;;-145.68;100.00;72626.41;10186923;29;20232;-69
2023/08/01 21:32:04;;;;;;;4.05;2.05;;;;;;;-145.68;100.00;72620.41;10182591;29;20576;-69
2023/08/01 21:37:05;;;;;;;2.00;1.77;;;;;;;-145.68;100.00;72632.41;10173795;29;20327;-70
2023/08/01 21:42:06;;;;;;;2.08;1.88;;;;;;;-145.68;100.00;72634.41;10173664;29;20803;-69
2023/08/01 21:47:08;;;;;;;3.47;2.30;;;;;;;-145.68;100.00;72638.41;10173002;29;20327;-69
2023/08/01 21:52:08;;;;;;;4.47;2.55;;;;;;;-145.68;100.00;72628.41;10173382;29;20585;-69
2023/08/01 21:57:08;;;;;;;5.80;2.40;;;;;;;-145.68;100.00;72632.41;10172639;29;20255;-69
2023/08/01 22:02:09;;;;;;;3.15;2.20;;;;;;;-145.68;100.00;72630.41;10173086;29;20205;-69
2023/08/01 22:07:09;;;;;;;4.72;2.00;;;;;;;-145.68;100.00;72628.41;10171886;29;20237;-69
2023/08/01 22:12:09;;;;;;;6.10;2.35;;;;;;;-145.68;100.00;72622.41;10172697;29;20288;-69
2023/08/01 22:17:10;;;;;;;2.60;1.60;;;;;;;-145.68;100.00;72622.41;10172471;29;20247;-69
2023/08/01 22:22:11;;;;;;;1.88;1.50;;;;;;;-145.68;100.00;72620.41;10172053;29;20212;-69
2023/08/01 22:27:12;;;;;;;5.10;1.80;;;;;;;-145.68;99.33;72616.44;10172176;29;20296;-69
2023/08/01 22:32:12;;;;;;;5.05;1.60;;;;;;;-145.68;96.88;72612.44;10171642;29;20683;-69
2023/08/01 22:37:12;;;;;;;2.97;1.40;;;;;;;-145.68;95.30;72610.44;10171721;29;20609;-69